createdAt,value
2023-02-11T00:01:26.880Z,27.50
2023-02-11T00:03:55.655Z,26.20
2023-02-11T00:06:25.608Z,25.90
2023-02-11T00:08:54.348Z,26.70
2023-02-11T00:11:25.707Z,26.10
2023-02-11T00:13:53.782Z,24.40
2023-02-11T00:16:21.984Z,26.30
2023-02-11T00:18:50.553Z,23.60
2023-02-11T00:21:22.283Z,24.90
2023-02-11T00:23:51.431Z,23.10
2023-02-11T00:26:25.985Z,20.40
2023-02-11T00:28:54.122Z,21.50
2023-02-11T00:31:23.735Z,22.70
2023-02-11T00:33:52.160Z,22.10
2023-02-11T00:36:25.410Z,22.30
2023-02-11T00:38:55.494Z,21.60
2023-02-11T00:41:24.146Z,20.80
2023-02-11T00:43:53.105Z,22.30
2023-02-11T00:46:21.554Z,22.10
2023-02-11T00:48:51.956Z,20.70
2023-02-11T00:51:22.666Z,21.70
2023-02-11T00:53:52.152Z,22.20
2023-02-11T00:56:28.153Z,19.80
2023-02-11T00:59:02.544Z,18.40
2023-02-11T01:01:30.590Z,17.40
2023-02-11T01:03:58.686Z,17.00
2023-02-11T01:06:26.595Z,18.80
2023-02-11T01:08:54.642Z,23.90
2023-02-11T01:11:23.014Z,22.70
2023-02-11T01:13:51.099Z,21.40
2023-02-11T01:16:20.660Z,22.00
2023-02-11T01:18:49.298Z,20.30
2023-02-11T01:21:19.315Z,17.90
2023-02-11T01:23:47.765Z,18.90
2023-02-11T01:26:16.383Z,19.90
2023-02-11T01:28:44.841Z,17.20
2023-02-11T01:31:13.119Z,15.70
2023-02-11T01:33:41.896Z,15.70
2023-02-11T01:36:11.945Z,16.80
2023-02-11T01:38:41.145Z,16.80
2023-02-11T01:41:12.727Z,16.80
2023-02-11T01:43:44.267Z,16.90
2023-02-11T01:46:15.478Z,17.30
2023-02-11T01:48:57.630Z,19.70
2023-02-11T01:51:32.866Z,17.30
2023-02-11T01:54:21.761Z,16.30
2023-02-11T01:57:11.573Z,17.90
2023-02-11T02:00:15.805Z,14.30
2023-02-11T02:02:44.105Z,14.70
2023-02-11T02:05:24.341Z,16.30
2023-02-11T02:08:23.520Z,15.20
2023-02-11T02:10:56.534Z,15.20
2023-02-11T02:13:26.095Z,16.60
2023-02-11T02:16:20.297Z,15.10
2023-02-11T02:19:19.830Z,16.20
2023-02-11T02:22:15.414Z,14.90
2023-02-11T02:25:18.864Z,16.10
2023-02-11T02:27:49.575Z,14.40
2023-02-11T02:30:26.545Z,16.00
2023-02-11T02:33:21.708Z,15.10
2023-02-11T02:35:58.506Z,17.60
2023-02-11T02:38:30.593Z,17.30
2023-02-11T02:41:10.279Z,15.20
2023-02-11T02:43:43.108Z,16.90
2023-02-11T02:46:19.744Z,15.50
2023-02-11T02:48:55.126Z,15.30
2023-02-11T02:51:48.835Z,16.80
2023-02-11T02:54:38.804Z,15.40
2023-02-11T02:57:33.066Z,13.80
2023-02-11T03:04:42.897Z,14.50
2023-02-11T03:07:28.774Z,13.50
2023-02-11T03:10:08.703Z,15.60
2023-02-11T03:12:38.656Z,15.00
2023-02-11T03:15:07.749Z,13.80
2023-02-11T03:17:39.605Z,15.40
2023-02-11T03:20:11.462Z,14.70
2023-02-11T03:23:12.782Z,14.30
2023-02-11T03:26:02.933Z,14.70
2023-02-11T03:28:37.475Z,14.50
2023-02-11T03:31:19.293Z,15.00
2023-02-11T03:34:08.792Z,14.30
2023-02-11T03:36:48.064Z,15.90
2023-02-11T03:39:30.808Z,15.80
2023-02-11T03:42:02.175Z,16.80
2023-02-11T03:44:36.797Z,16.70
2023-02-11T03:47:10.222Z,15.50
2023-02-11T03:49:41.827Z,16.90
2023-02-11T03:52:12.447Z,16.00
2023-02-11T03:54:43.599Z,15.60
2023-02-11T03:57:11.708Z,17.20
2023-02-11T04:00:00.620Z,15.80
2023-02-11T04:02:32.559Z,15.00
2023-02-11T04:05:01.521Z,15.20
2023-02-11T04:07:29.882Z,15.70
2023-02-11T04:09:57.851Z,14.80
2023-02-11T04:12:26.625Z,14.20
2023-02-11T04:14:54.706Z,15.90
2023-02-11T04:17:22.898Z,14.40
2023-02-11T04:19:50.905Z,17.20
2023-02-11T04:22:18.817Z,14.60
2023-02-11T04:24:46.905Z,16.10
2023-02-11T04:27:15.087Z,16.50
2023-02-11T04:29:43.172Z,15.50
2023-02-11T04:32:11.813Z,16.10
2023-02-11T04:34:40.176Z,14.40
2023-02-11T04:37:08.513Z,13.80
2023-02-11T04:39:36.811Z,14.80
2023-02-11T04:42:05.040Z,15.00
2023-02-11T04:44:33.064Z,15.60
2023-02-11T04:47:01.206Z,15.10
2023-02-11T04:49:29.352Z,14.80
2023-02-11T04:51:57.376Z,14.70
2023-02-11T04:54:25.517Z,14.50
2023-02-11T04:56:53.527Z,14.20
2023-02-11T04:59:21.746Z,13.40
2023-02-11T05:01:50.068Z,13.90
2023-02-11T05:04:18.411Z,14.10
2023-02-11T05:06:46.472Z,14.40
2023-02-11T05:09:15.275Z,14.20
2023-02-11T05:11:43.413Z,15.00
2023-02-11T05:14:11.454Z,13.00
2023-02-11T05:16:39.826Z,14.30
2023-02-11T05:19:08.010Z,15.60
2023-02-11T05:21:35.952Z,14.50
2023-02-11T05:24:04.198Z,14.70
2023-02-11T05:26:32.732Z,13.70
2023-02-11T05:29:00.972Z,15.40
2023-02-11T05:31:29.156Z,13.30
2023-02-11T05:33:57.269Z,14.50
2023-02-11T05:36:25.415Z,14.10
2023-02-11T05:38:53.482Z,13.70
2023-02-11T05:41:22.021Z,13.30
2023-02-11T05:43:53.861Z,12.90
2023-02-11T05:46:22.072Z,11.90
2023-02-11T05:48:50.167Z,12.30
2023-02-11T05:51:18.352Z,13.50
2023-02-11T05:53:46.364Z,14.30
2023-02-11T05:56:14.767Z,15.00
2023-02-11T05:58:42.918Z,13.20
2023-02-11T06:01:11.000Z,14.00
2023-02-11T06:03:39.012Z,14.80
2023-02-11T06:06:10.786Z,15.50
2023-02-11T06:08:39.806Z,15.80
2023-02-11T06:11:07.760Z,16.00
2023-02-11T06:13:36.691Z,15.40
2023-02-11T06:16:05.094Z,14.90
2023-02-11T06:18:33.748Z,14.40
2023-02-11T06:21:01.766Z,15.40
2023-02-11T06:23:30.503Z,13.50
2023-02-11T06:26:09.028Z,13.30
2023-02-11T06:28:39.319Z,14.80
2023-02-11T06:31:09.807Z,14.80
2023-02-11T06:33:38.853Z,15.00
2023-02-11T06:36:18.636Z,14.10
2023-02-11T06:38:48.153Z,15.70
2023-02-11T06:41:20.243Z,12.30
2023-02-11T06:43:48.937Z,14.70
2023-02-11T06:46:17.580Z,17.50
2023-02-11T06:48:46.156Z,26.80
2023-02-11T06:51:14.980Z,33.50
2023-02-11T06:53:45.707Z,27.30
2023-02-11T06:56:17.524Z,20.60
2023-02-11T06:58:46.026Z,16.50
2023-02-11T07:01:16.486Z,18.90
2023-02-11T07:03:46.097Z,18.90
2023-02-11T07:06:17.426Z,13.90
2023-02-11T07:08:46.166Z,13.80
2023-02-11T07:11:21.412Z,13.50
2023-02-11T07:13:49.289Z,17.10
2023-02-11T07:16:18.852Z,16.40
2023-02-11T07:18:47.999Z,16.30
2023-02-11T07:21:19.300Z,17.70
2023-02-11T07:23:49.021Z,18.00
2023-02-11T07:26:20.082Z,18.20
2023-02-11T07:28:48.133Z,18.20
2023-02-11T07:31:25.766Z,18.30
2023-02-11T07:33:56.720Z,18.90
2023-02-11T07:36:24.887Z,20.70
2023-02-11T07:38:53.143Z,23.40
2023-02-11T07:41:23.191Z,25.40
2023-02-11T07:43:51.610Z,18.10
2023-02-11T07:46:22.559Z,18.10
2023-02-11T07:48:51.411Z,19.70
2023-02-11T07:51:26.104Z,21.30
2023-02-11T07:53:55.579Z,20.90
2023-02-11T07:56:23.776Z,21.20
2023-02-11T07:58:52.195Z,21.80
2023-02-11T08:01:25.302Z,22.60
2023-02-11T08:03:54.102Z,26.00
2023-02-11T08:06:24.895Z,22.90
2023-02-11T08:08:53.299Z,23.60
2023-02-11T08:11:26.407Z,25.10
2023-02-11T08:13:56.033Z,32.50
2023-02-11T08:16:50.011Z,33.20
2023-02-11T08:19:18.154Z,35.80
2023-02-11T08:21:47.137Z,35.80
2023-02-11T08:24:15.954Z,35.90
2023-02-11T08:26:44.683Z,37.50
2023-02-11T08:29:15.094Z,34.40
2023-02-11T08:31:46.114Z,31.00
2023-02-11T08:34:14.747Z,33.80
2023-02-11T08:36:43.474Z,34.60
2023-02-11T08:39:22.608Z,34.30
2023-02-11T08:41:56.866Z,30.20
2023-02-11T08:44:25.263Z,31.90
2023-02-11T08:46:53.407Z,32.90
2023-02-11T08:49:22.274Z,33.20
2023-02-11T08:51:50.562Z,30.40
2023-02-11T08:54:18.442Z,28.60
2023-02-11T08:56:46.446Z,31.30
2023-02-11T08:59:15.482Z,32.10
2023-02-11T09:01:44.650Z,31.60
2023-02-11T09:04:13.193Z,31.70
2023-02-11T09:06:41.375Z,29.90
2023-02-11T09:09:14.509Z,31.00
2023-02-11T09:11:44.781Z,30.80
2023-02-11T09:14:22.526Z,29.40
2023-02-11T09:16:51.863Z,31.60
2023-02-11T09:19:21.013Z,33.50
2023-02-11T09:21:49.534Z,33.10
2023-02-11T09:24:18.044Z,35.70
2023-02-11T09:26:46.097Z,35.60
2023-02-11T09:29:14.350Z,36.40
2023-02-11T09:31:42.374Z,37.00
2023-02-11T09:34:11.931Z,39.60
2023-02-11T09:36:41.579Z,41.00
2023-02-11T09:39:17.298Z,42.20
2023-02-11T09:42:00.497Z,43.80
2023-02-11T09:44:33.502Z,43.30
2023-02-11T09:47:05.972Z,43.80
2023-02-11T09:49:44.492Z,47.80
2023-02-11T09:52:18.421Z,43.00
2023-02-11T09:54:58.219Z,43.40
2023-02-11T09:57:35.757Z,42.20
2023-02-11T10:00:24.117Z,45.60
2023-02-11T10:02:58.129Z,41.20
2023-02-11T10:05:56.532Z,45.70
2023-02-11T10:08:38.151Z,43.60
2023-02-11T10:11:31.245Z,43.20
2023-02-11T10:14:21.813Z,43.70
2023-02-11T10:17:15.434Z,43.40
2023-02-11T10:20:11.149Z,41.10
2023-02-11T10:23:22.690Z,46.00
2023-02-11T10:25:54.671Z,44.90
2023-02-11T10:28:36.933Z,46.60
2023-02-11T10:31:22.999Z,47.80
2023-02-11T10:34:03.516Z,47.20
2023-02-11T10:36:35.874Z,45.20
2023-02-11T10:39:31.901Z,48.40
2023-02-11T10:42:05.493Z,47.60
2023-02-11T10:44:39.370Z,48.60
2023-02-11T10:47:23.691Z,53.60
2023-02-11T10:49:51.769Z,49.40
2023-02-11T10:52:25.221Z,48.30
2023-02-11T10:55:14.586Z,48.80
2023-02-11T10:57:50.903Z,47.50
2023-02-11T11:00:36.494Z,45.40
2023-02-11T11:03:25.500Z,49.20
2023-02-11T11:06:00.296Z,48.20
2023-02-11T11:08:47.939Z,43.70
2023-02-11T11:11:19.188Z,42.30
2023-02-11T11:13:53.146Z,45.30
2023-02-11T11:16:25.877Z,45.30
2023-02-11T11:19:21.624Z,42.10
2023-02-11T11:21:57.169Z,41.30
2023-02-11T11:24:29.478Z,41.20
2023-02-11T11:27:01.606Z,38.10
2023-02-11T11:29:39.457Z,41.10
2023-02-11T11:32:20.539Z,40.40
2023-02-11T11:34:52.427Z,38.60
2023-02-11T11:37:24.836Z,39.40
2023-02-11T11:40:10.501Z,39.30
2023-02-11T11:42:39.973Z,37.00
2023-02-11T11:45:19.826Z,36.90
2023-02-11T11:47:54.307Z,34.00
2023-02-11T11:50:27.848Z,32.70
2023-02-11T11:52:55.722Z,33.10
2023-02-11T11:55:42.469Z,31.70
2023-02-11T11:58:15.909Z,32.10
2023-02-11T12:00:53.643Z,33.10
2023-02-11T12:03:27.954Z,31.40
2023-02-11T12:06:29.379Z,32.30
2023-02-11T12:09:34.158Z,33.60
2023-02-11T12:12:21.012Z,33.80
2023-02-11T12:15:10.334Z,32.70
2023-02-11T12:17:56.884Z,36.90
2023-02-11T12:20:27.731Z,31.70
2023-02-11T12:23:17.649Z,32.00
2023-02-11T12:26:06.623Z,36.00
2023-02-11T12:28:34.845Z,34.90
2023-02-11T12:31:13.198Z,34.30
2023-02-11T12:34:08.401Z,33.20
2023-02-11T12:36:41.951Z,32.90
2023-02-11T12:39:24.525Z,33.10
2023-02-11T12:42:30.857Z,31.70
2023-02-11T12:45:04.722Z,32.10
2023-02-11T12:47:32.682Z,32.20
2023-02-11T12:50:13.365Z,32.00
2023-02-11T12:52:50.445Z,33.90
2023-02-11T12:55:28.216Z,32.70
2023-02-11T12:58:01.587Z,32.90
2023-02-11T13:00:51.501Z,34.40
2023-02-11T13:03:32.009Z,32.40
2023-02-11T13:06:07.959Z,35.40
2023-02-11T13:08:40.914Z,35.90
2023-02-11T13:11:16.119Z,34.50
2023-02-11T13:13:56.406Z,33.10
2023-02-11T13:16:39.503Z,35.00
2023-02-11T13:19:13.428Z,33.80
2023-02-11T13:22:04.921Z,34.70
2023-02-11T13:24:44.456Z,34.80
2023-02-11T13:27:18.372Z,33.30
2023-02-11T13:30:26.908Z,33.90
2023-02-11T13:32:55.733Z,33.30
2023-02-11T13:35:39.921Z,34.30
2023-02-11T13:38:16.789Z,33.70
2023-02-11T13:40:45.367Z,35.90
2023-02-11T13:43:23.269Z,35.60
2023-02-11T13:45:57.834Z,35.40
2023-02-11T13:48:31.750Z,36.40
2023-02-11T13:51:34.567Z,34.40
2023-02-11T13:54:04.166Z,37.10
2023-02-11T13:56:36.676Z,35.50
2023-02-11T13:59:25.912Z,37.10
2023-02-11T14:02:12.319Z,35.10
2023-02-11T14:05:31.253Z,37.50
2023-02-11T14:08:30.325Z,37.50
2023-02-11T14:11:14.911Z,35.00
2023-02-11T14:13:48.866Z,35.20
2023-02-11T14:16:35.609Z,35.00
2023-02-11T14:19:06.485Z,31.70
2023-02-11T14:21:38.952Z,33.30
2023-02-11T14:24:10.116Z,30.40
2023-02-11T14:26:41.187Z,30.70
2023-02-11T14:29:41.145Z,29.90
2023-02-11T14:32:47.841Z,29.40
2023-02-11T14:35:18.976Z,29.30
2023-02-11T14:38:06.525Z,28.80
2023-02-11T14:40:53.173Z,27.50
2023-02-11T14:43:29.331Z,29.40
2023-02-11T14:45:58.895Z,26.70
2023-02-11T14:48:35.199Z,27.50
2023-02-11T14:51:06.272Z,26.70
2023-02-11T14:53:35.218Z,26.60
2023-02-11T14:56:04.096Z,27.80
2023-02-11T14:58:32.988Z,26.20
2023-02-11T15:01:20.987Z,29.90
2023-02-11T15:03:49.991Z,26.70
2023-02-11T15:06:21.041Z,26.60
2023-02-11T15:08:52.488Z,26.50
2023-02-11T15:11:23.790Z,28.70
2023-02-11T15:13:55.317Z,28.70
2023-02-11T15:16:25.670Z,28.60
2023-02-11T15:19:00.152Z,27.40
2023-02-11T15:21:32.721Z,29.00
2023-02-11T15:24:02.840Z,30.40
2023-02-11T15:26:31.177Z,27.70
2023-02-11T15:28:59.425Z,29.20
2023-02-11T15:31:28.529Z,31.10
2023-02-11T15:34:08.016Z,29.30
2023-02-11T15:36:37.764Z,31.70
2023-02-11T15:39:41.037Z,32.20
2023-02-11T15:42:17.930Z,30.60
2023-02-11T15:44:49.184Z,29.10
2023-02-11T15:47:22.738Z,31.50
2023-02-11T15:49:51.318Z,31.30
2023-02-11T15:52:25.689Z,33.20
2023-02-11T15:54:56.501Z,35.60
2023-02-11T15:57:24.488Z,40.10
2023-02-11T15:59:54.843Z,38.00
2023-02-11T16:02:45.258Z,40.40
2023-02-11T16:05:37.880Z,41.40
2023-02-11T16:08:26.280Z,39.50
2023-02-11T16:10:58.637Z,41.50
2023-02-11T16:13:28.289Z,41.30
2023-02-11T16:16:05.980Z,42.90
2023-02-11T16:19:03.162Z,44.60
2023-02-11T16:21:36.330Z,44.30
2023-02-11T16:24:07.489Z,44.10
2023-02-11T16:26:43.254Z,42.20
2023-02-11T16:29:23.594Z,43.00
2023-02-11T16:31:53.591Z,43.00
2023-02-11T16:34:24.662Z,42.20
2023-02-11T16:36:53.030Z,43.60
2023-02-11T16:39:22.490Z,44.30
2023-02-11T16:41:51.883Z,56.70
2023-02-11T16:44:19.864Z,40.10
2023-02-11T16:46:48.137Z,39.20
2023-02-11T16:49:40.905Z,38.90
2023-02-11T16:52:14.635Z,38.60
2023-02-11T16:54:42.924Z,37.60
2023-02-11T16:57:16.151Z,40.40
2023-02-11T16:59:44.709Z,44.00
2023-02-11T17:02:22.873Z,46.20
2023-02-11T17:04:59.151Z,47.60
2023-02-11T17:07:28.247Z,47.60
2023-02-11T17:09:56.954Z,48.80
2023-02-11T17:12:27.850Z,45.60
2023-02-11T17:14:55.768Z,48.50
2023-02-11T17:17:23.946Z,48.70
2023-02-11T17:19:52.224Z,47.80
2023-02-11T17:22:20.305Z,45.70
2023-02-11T17:24:48.367Z,46.60
2023-02-11T17:27:17.234Z,46.70
2023-02-11T17:29:45.235Z,48.00
2023-02-11T17:32:13.326Z,48.00
2023-02-11T17:34:41.456Z,45.90
2023-02-11T17:37:10.495Z,50.40
2023-02-11T17:39:40.238Z,47.80
2023-02-11T17:42:08.900Z,47.20
2023-02-11T17:44:37.545Z,43.90
2023-02-11T17:47:05.473Z,46.70
2023-02-11T17:49:33.512Z,46.40
2023-02-11T17:52:01.450Z,49.50
2023-02-11T17:54:29.539Z,68.70
2023-02-11T17:56:58.583Z,59.70
2023-02-11T17:59:29.163Z,60.60
2023-02-11T18:01:57.086Z,67.80
2023-02-11T18:04:25.008Z,61.30
2023-02-11T18:06:53.731Z,54.00
2023-02-11T18:09:22.077Z,59.50
2023-02-11T18:11:52.559Z,61.30
2023-02-11T18:14:21.838Z,59.30
2023-02-11T18:16:51.932Z,59.80
2023-02-11T18:19:20.419Z,54.80
2023-02-11T18:21:50.503Z,58.30
2023-02-11T18:24:19.196Z,62.20
2023-02-11T18:26:47.115Z,62.00
2023-02-11T18:29:15.081Z,58.00
2023-02-11T18:31:43.191Z,59.70
2023-02-11T18:34:11.569Z,57.50
2023-02-11T18:36:39.983Z,58.70
2023-02-11T18:39:08.300Z,55.40
2023-02-11T18:41:36.382Z,56.90
2023-02-11T18:44:05.129Z,54.40
2023-02-11T18:46:33.598Z,55.50
2023-02-11T18:49:01.645Z,56.10
2023-02-11T18:51:32.356Z,57.80
2023-02-11T18:54:01.259Z,52.40
2023-02-11T18:56:29.396Z,52.60
2023-02-11T18:59:01.109Z,54.00
2023-02-11T19:01:31.648Z,54.10
2023-02-11T19:04:03.618Z,53.40
2023-02-11T19:06:35.221Z,54.50
2023-02-11T19:09:15.046Z,55.00
2023-02-11T19:11:50.516Z,53.10
2023-02-11T19:14:28.137Z,53.20
2023-02-11T19:16:58.542Z,53.60
2023-02-11T19:19:29.241Z,55.50
2023-02-11T19:21:58.688Z,56.80
2023-02-11T19:24:28.423Z,55.10
2023-02-11T19:26:59.356Z,55.00
2023-02-11T19:29:28.481Z,54.60
2023-02-11T19:31:56.471Z,55.80
2023-02-11T19:34:24.869Z,53.90
2023-02-11T19:36:54.539Z,54.60
2023-02-11T19:39:24.809Z,53.20
2023-02-11T19:41:53.279Z,55.10
2023-02-11T19:44:21.627Z,52.70
2023-02-11T19:46:50.380Z,54.10
2023-02-11T19:49:23.221Z,53.70
2023-02-11T19:51:57.685Z,53.80
2023-02-11T19:54:27.368Z,50.60
2023-02-11T19:56:56.113Z,52.90
2023-02-11T19:59:24.101Z,54.80
2023-02-11T20:01:53.912Z,54.70
2023-02-11T20:04:24.065Z,50.40
2023-02-11T20:06:52.346Z,53.50
2023-02-11T20:09:21.413Z,55.30
2023-02-11T20:11:49.798Z,60.10
2023-02-11T20:14:17.804Z,58.00
2023-02-11T20:16:49.508Z,58.70
2023-02-11T20:19:21.736Z,61.40
2023-02-11T20:21:53.368Z,58.60
2023-02-11T20:24:22.369Z,65.20
2023-02-11T20:26:55.331Z,62.20
2023-02-11T20:29:24.494Z,59.30
2023-02-11T20:31:53.710Z,61.00
2023-02-11T20:34:22.271Z,60.20
2023-02-11T20:36:53.463Z,60.70
2023-02-11T20:39:23.683Z,60.10
2023-02-11T20:41:52.499Z,59.50
2023-02-11T20:44:22.576Z,60.30
2023-02-11T20:46:52.230Z,59.70
2023-02-11T20:49:23.067Z,53.80
2023-02-11T20:51:53.689Z,53.40
2023-02-11T20:54:23.404Z,56.50
2023-02-11T20:56:53.785Z,55.40
2023-02-11T20:59:22.603Z,57.00
2023-02-11T21:01:55.507Z,60.50
2023-02-11T21:04:27.217Z,68.30
2023-02-11T21:06:58.483Z,68.30
2023-02-11T21:09:29.976Z,65.80
2023-02-11T21:11:58.875Z,63.20
2023-02-11T21:14:27.299Z,64.40
2023-02-11T21:16:55.561Z,65.00
2023-02-11T21:19:23.856Z,62.90
2023-02-11T21:21:55.190Z,63.90
2023-02-11T21:24:23.852Z,63.30
2023-02-11T21:26:51.832Z,65.60
2023-02-11T21:29:19.847Z,63.80
2023-02-11T21:31:48.941Z,62.70
2023-02-11T21:34:17.870Z,65.50
2023-02-11T21:36:46.026Z,63.20
2023-02-11T21:39:14.272Z,62.30
2023-02-11T21:41:42.472Z,64.60
2023-02-11T21:44:10.696Z,60.20
2023-02-11T21:46:41.579Z,63.10
2023-02-11T21:49:11.177Z,62.90
2023-02-11T21:51:39.785Z,64.60
2023-02-11T21:54:11.781Z,62.40
2023-02-11T21:56:44.630Z,62.50
2023-02-11T21:59:18.005Z,61.30
2023-02-11T22:01:47.464Z,63.40
2023-02-11T22:04:15.702Z,66.20
2023-02-11T22:06:46.279Z,64.70
2023-02-11T22:09:18.003Z,66.30
2023-02-11T22:11:49.707Z,65.50
2023-02-11T22:14:22.891Z,66.50
2023-02-11T22:16:52.144Z,62.60
2023-02-11T22:19:21.702Z,65.00
2023-02-11T22:21:50.097Z,61.60
2023-02-11T22:24:18.262Z,61.90
2023-02-11T22:26:46.894Z,61.00
2023-02-11T22:29:15.451Z,57.60
2023-02-11T22:31:44.231Z,56.90
2023-02-11T22:34:13.141Z,56.30
2023-02-11T22:36:42.526Z,52.80
2023-02-11T22:39:13.846Z,53.70
2023-02-11T22:41:44.757Z,56.60
2023-02-11T22:44:14.102Z,55.00
2023-02-11T22:46:42.283Z,57.70
2023-02-11T22:49:14.047Z,57.80
2023-02-11T22:51:42.948Z,59.20
2023-02-11T22:54:16.665Z,56.20
2023-02-11T22:56:47.165Z,56.60
2023-02-11T22:59:15.626Z,55.20
2023-02-11T23:01:44.804Z,54.30
2023-02-11T23:04:15.706Z,55.80
2023-02-11T23:06:43.957Z,54.80
2023-02-11T23:09:14.953Z,58.70
2023-02-11T23:11:43.240Z,57.90
2023-02-11T23:14:12.360Z,57.20
2023-02-11T23:16:41.803Z,57.30
2023-02-11T23:19:11.156Z,58.60
2023-02-11T23:21:39.649Z,59.80
2023-02-11T23:24:11.595Z,57.70
2023-02-11T23:26:40.991Z,57.70
2023-02-11T23:29:09.938Z,54.40
2023-02-11T23:31:40.626Z,56.30
2023-02-11T23:34:09.651Z,59.80
2023-02-11T23:36:37.760Z,65.60
2023-02-11T23:39:06.150Z,65.40
2023-02-11T23:41:34.315Z,62.80
2023-02-11T23:44:02.395Z,62.90
2023-02-11T23:46:30.534Z,63.00
2023-02-11T23:48:58.614Z,61.80
2023-02-11T23:51:26.996Z,60.40
2023-02-11T23:53:56.264Z,61.60
2023-02-11T23:56:27.059Z,63.80
2023-02-11T23:58:57.417Z,58.80
